sensor_id;sensor_type;location;lat;lon;timestamp;pressure;altitude;pressure_sealevel;temperature;humidity
23303;BME280;11820;48.738;9.092;2022-11-11T00:07:19;97683.72;;;8.68;nan
23303;BME280;11820;48.738;9.092;2022-11-11T00:09:44;97684.06;;;8.55;nan
23303;BME280;11820;48.738;9.092;2022-11-11T00:12:09;97679.94;;;8.62;nan
23303;BME280;11820;48.738;9.092;2022-11-11T00:14:34;97677.69;;;8.32;nan
23303;BME280;11820;48.738;9.092;2022-11-11T00:17:00;97671.16;;;8.38;nan
23303;BME280;11820;48.738;9.092;2022-11-11T00:19:44;97670.28;;;8.47;nan
23303;BME280;11820;48.738;9.092;2022-11-11T00:22:28;97670.94;;;8.66;nan
23303;BME280;11820;48.738;9.092;2022-11-11T00:25:15;97669.94;;;8.94;nan
23303;BME280;11820;48.738;9.092;2022-11-11T00:27:40;97676.84;;;8.94;nan
23303;BME280;11820;48.738;9.092;2022-11-11T00:30:06;97678.31;;;8.79;nan
23303;BME280;11820;48.738;9.092;2022-11-11T00:32:32;97683.72;;;8.68;nan
23303;BME280;11820;48.738;9.092;2022-11-11T00:34:58;97685.91;;;8.45;nan
23303;BME280;11820;48.738;9.092;2022-11-11T00:37:43;97686.88;;;8.44;nan
23303;BME280;11820;48.738;9.092;2022-11-11T00:40:10;97689.94;;;8.48;nan
23303;BME280;11820;48.738;9.092;2022-11-11T00:42:35;97685.19;;;8.26;nan
23303;BME280;11820;48.738;9.092;2022-11-11T00:45:01;97697.28;;;8.16;nan
23303;BME280;11820;48.738;9.092;2022-11-11T00:47:27;97678.28;;;8.26;nan
23303;BME280;11820;48.738;9.092;2022-11-11T00:50:15;97694.06;;;8.41;nan
23303;BME280;11820;48.738;9.092;2022-11-11T00:53:00;97695.41;;;8.45;nan
23303;BME280;11820;48.738;9.092;2022-11-11T00:55:26;97701.22;;;8.64;nan
23303;BME280;11820;48.738;9.092;2022-11-11T00:57:51;97705.34;;;8.57;nan
23303;BME280;11820;48.738;9.092;2022-11-11T01:00:16;97704.31;;;8.50;nan
23303;BME280;11820;48.738;9.092;2022-11-11T01:02:42;97698.97;;;8.34;nan
23303;BME280;11820;48.738;9.092;2022-11-11T01:05:07;97705.38;;;8.30;nan
23303;BME280;11820;48.738;9.092;2022-11-11T01:07:32;97709.53;;;8.04;nan
23303;BME280;11820;48.738;9.092;2022-11-11T01:09:58;97715.00;;;7.92;nan
23303;BME280;11820;48.738;9.092;2022-11-11T01:12:23;97721.88;;;8.01;nan
23303;BME280;11820;48.738;9.092;2022-11-11T01:14:48;97727.69;;;8.03;nan
23303;BME280;11820;48.738;9.092;2022-11-11T01:17:14;97717.41;;;7.67;nan
23303;BME280;11820;48.738;9.092;2022-11-11T01:19:39;97705.16;;;7.78;nan
23303;BME280;11820;48.738;9.092;2022-11-11T01:22:04;97695.78;;;7.87;nan
23303;BME280;11820;48.738;9.092;2022-11-11T01:24:29;97691.63;;;8.03;nan
23303;BME280;11820;48.738;9.092;2022-11-11T01:26:55;97696.09;;;8.10;nan
23303;BME280;11820;48.738;9.092;2022-11-11T01:29:20;97703.63;;;8.31;nan
23303;BME280;11820;48.738;9.092;2022-11-11T01:31:45;97696.88;;;8.47;nan
23303;BME280;11820;48.738;9.092;2022-11-11T01:34:11;97698.72;;;8.55;nan
23303;BME280;11820;48.738;9.092;2022-11-11T01:36:36;97697.84;;;8.64;nan
23303;BME280;11820;48.738;9.092;2022-11-11T01:39:02;97694.63;;;8.62;nan
23303;BME280;11820;48.738;9.092;2022-11-11T01:41:32;97703.31;;;8.61;nan
23303;BME280;11820;48.738;9.092;2022-11-11T01:49:35;97706.06;;;8.50;nan
23303;BME280;11820;48.738;9.092;2022-11-11T01:52:15;97702.88;;;8.38;nan
23303;BME280;11820;48.738;9.092;2022-11-11T01:54:52;97699.16;;;8.33;nan
23303;BME280;11820;48.738;9.092;2022-11-11T01:57:27;97698.03;;;8.35;nan
23303;BME280;11820;48.738;9.092;2022-11-11T02:00:02;97696.66;;;8.41;nan
23303;BME280;11820;48.738;9.092;2022-11-11T02:05:11;97693.22;;;8.23;nan
23303;BME280;11820;48.738;9.092;2022-11-11T02:07:57;97692.25;;;8.14;nan
23303;BME280;11820;48.738;9.092;2022-11-11T02:10:25;97692.47;;;8.03;nan
23303;BME280;11820;48.738;9.092;2022-11-11T02:12:52;97697.41;;;8.14;nan
23303;BME280;11820;48.738;9.092;2022-11-11T02:15:36;97709.00;;;8.01;nan
23303;BME280;11820;48.738;9.092;2022-11-11T02:18:03;97707.22;;;7.75;nan
23303;BME280;11820;48.738;9.092;2022-11-11T02:20:34;97708.00;;;7.75;nan
23303;BME280;11820;48.738;9.092;2022-11-11T02:23:06;97702.84;;;7.85;nan
23303;BME280;11820;48.738;9.092;2022-11-11T02:25:35;97707.97;;;7.94;nan
23303;BME280;11820;48.738;9.092;2022-11-11T02:28:03;97706.66;;;7.81;nan
23303;BME280;11820;48.738;9.092;2022-11-11T02:30:30;97713.69;;;7.88;nan
23303;BME280;11820;48.738;9.092;2022-11-11T02:32:55;97705.03;;;7.80;nan
23303;BME280;11820;48.738;9.092;2022-11-11T02:35:29;97699.09;;;7.79;nan
23303;BME280;11820;48.738;9.092;2022-11-11T02:37:55;97699.56;;;7.92;nan
23303;BME280;11820;48.738;9.092;2022-11-11T02:40:25;97704.34;;;7.87;nan
23303;BME280;11820;48.738;9.092;2022-11-11T02:42:53;97704.72;;;7.92;nan
23303;BME280;11820;48.738;9.092;2022-11-11T02:45:18;97704.47;;;7.86;nan
23303;BME280;11820;48.738;9.092;2022-11-11T02:47:44;97705.28;;;7.86;nan
23303;BME280;11820;48.738;9.092;2022-11-11T02:50:09;97704.78;;;7.73;nan
23303;BME280;11820;48.738;9.092;2022-11-11T02:52:34;97704.31;;;7.51;nan
23303;BME280;11820;48.738;9.092;2022-11-11T02:55:00;97709.28;;;7.52;nan
23303;BME280;11820;48.738;9.092;2022-11-11T02:57:27;97702.41;;;7.53;nan
23303;BME280;11820;48.738;9.092;2022-11-11T02:59:52;97699.28;;;7.49;nan
23303;BME280;11820;48.738;9.092;2022-11-11T03:02:17;97690.59;;;7.60;nan
23303;BME280;11820;48.738;9.092;2022-11-11T03:04:43;97691.50;;;7.68;nan
23303;BME280;11820;48.738;9.092;2022-11-11T03:07:08;97695.59;;;7.61;nan
23303;BME280;11820;48.738;9.092;2022-11-11T03:09:33;97695.06;;;7.58;nan
23303;BME280;11820;48.738;9.092;2022-11-11T03:11:59;97698.03;;;7.63;nan
23303;BME280;11820;48.738;9.092;2022-11-11T03:14:24;97693.41;;;7.76;nan
23303;BME280;11820;48.738;9.092;2022-11-11T03:16:50;97688.09;;;7.77;nan
23303;BME280;11820;48.738;9.092;2022-11-11T03:19:35;97676.81;;;7.88;nan
23303;BME280;11820;48.738;9.092;2022-11-11T03:22:00;97682.13;;;8.13;nan
23303;BME280;11820;48.738;9.092;2022-11-11T03:24:28;97680.22;;;8.42;nan
23303;BME280;11820;48.738;9.092;2022-11-11T03:27:13;97677.34;;;8.45;nan
23303;BME280;11820;48.738;9.092;2022-11-11T03:29:39;97681.28;;;8.22;nan
23303;BME280;11820;48.738;9.092;2022-11-11T03:32:05;97681.09;;;8.06;nan
23303;BME280;11820;48.738;9.092;2022-11-11T03:34:31;97678.97;;;7.92;nan
23303;BME280;11820;48.738;9.092;2022-11-11T03:36:56;97677.22;;;7.93;nan
23303;BME280;11820;48.738;9.092;2022-11-11T03:39:40;97677.22;;;7.93;nan
23303;BME280;11820;48.738;9.092;2022-11-11T03:42:05;97682.88;;;7.96;nan
23303;BME280;11820;48.738;9.092;2022-11-11T03:44:31;97681.25;;;7.95;nan
23303;BME280;11820;48.738;9.092;2022-11-11T03:46:56;97681.91;;;7.97;nan
23303;BME280;11820;48.738;9.092;2022-11-11T03:49:21;97680.59;;;7.93;nan
23303;BME280;11820;48.738;9.092;2022-11-11T03:51:47;97690.34;;;7.90;nan
23303;BME280;11820;48.738;9.092;2022-11-11T03:54:12;97682.19;;;7.94;nan
23303;BME280;11820;48.738;9.092;2022-11-11T03:56:37;97696.22;;;7.82;nan
23303;BME280;11820;48.738;9.092;2022-11-11T03:59:03;97689.91;;;7.67;nan
23303;BME280;11820;48.738;9.092;2022-11-11T04:01:28;97690.94;;;7.74;nan
23303;BME280;11820;48.738;9.092;2022-11-11T04:04:12;97701.50;;;7.81;nan
23303;BME280;11820;48.738;9.092;2022-11-11T04:06:56;97704.22;;;7.79;nan
23303;BME280;11820;48.738;9.092;2022-11-11T04:09:40;97705.03;;;7.80;nan
23303;BME280;11820;48.738;9.092;2022-11-11T04:12:24;97718.72;;;7.80;nan
23303;BME280;11820;48.738;9.092;2022-11-11T04:14:50;97714.34;;;7.90;nan
23303;BME280;11820;48.738;9.092;2022-11-11T04:17:34;97713.38;;;7.91;nan
23303;BME280;11820;48.738;9.092;2022-11-11T04:20:00;97718.81;;;7.88;nan
23303;BME280;11820;48.738;9.092;2022-11-11T04:22:43;97717.53;;;7.65;nan
23303;BME280;11820;48.738;9.092;2022-11-11T04:25:09;97719.69;;;7.79;nan
23303;BME280;11820;48.738;9.092;2022-11-11T04:27:56;97712.66;;;7.62;nan
23303;BME280;11820;48.738;9.092;2022-11-11T04:30:54;97704.28;;;7.60;nan
23303;BME280;11820;48.738;9.092;2022-11-11T04:33:19;97705.59;;;7.74;nan
23303;BME280;11820;48.738;9.092;2022-11-11T04:35:48;97708.19;;;7.64;nan
23303;BME280;11820;48.738;9.092;2022-11-11T04:38:13;97700.50;;;7.55;nan
23303;BME280;11820;48.738;9.092;2022-11-11T04:41:17;97702.16;;;7.27;nan
23303;BME280;11820;48.738;9.092;2022-11-11T04:43:42;97701.47;;;7.35;nan
23303;BME280;11820;48.738;9.092;2022-11-11T04:46:26;97706.50;;;7.27;nan
23303;BME280;11820;48.738;9.092;2022-11-11T04:48:51;97707.84;;;7.31;nan
23303;BME280;11820;48.738;9.092;2022-11-11T04:51:17;97707.47;;;7.26;nan
23303;BME280;11820;48.738;9.092;2022-11-11T04:53:42;97708.13;;;7.28;nan
23303;BME280;11820;48.738;9.092;2022-11-11T04:56:08;97709.75;;;7.19;nan
23303;BME280;11820;48.738;9.092;2022-11-11T04:58:52;97720.59;;;7.13;nan
23303;BME280;11820;48.738;9.092;2022-11-11T05:01:37;97730.09;;;7.03;nan
23303;BME280;11820;48.738;9.092;2022-11-11T05:04:21;97727.75;;;7.00;nan
23303;BME280;11820;48.738;9.092;2022-11-11T05:06:46;97739.81;;;7.00;nan
23303;BME280;11820;48.738;9.092;2022-11-11T05:09:29;97752.53;;;7.11;nan
23303;BME280;11820;48.738;9.092;2022-11-11T05:11:55;97760.66;;;6.97;nan
23303;BME280;11820;48.738;9.092;2022-11-11T05:14:20;97762.81;;;7.01;nan
23303;BME280;11820;48.738;9.092;2022-11-11T05:17:05;97767.44;;;6.98;nan
23303;BME280;11820;48.738;9.092;2022-11-11T05:19:49;97765.81;;;7.06;nan
23303;BME280;11820;48.738;9.092;2022-11-11T05:22:35;97773.78;;;7.13;nan
23303;BME280;11820;48.738;9.092;2022-11-11T05:25:02;97770.97;;;7.06;nan
23303;BME280;11820;48.738;9.092;2022-11-11T05:27:46;97778.13;;;7.12;nan
23303;BME280;11820;48.738;9.092;2022-11-11T05:30:13;97785.69;;;7.14;nan
23303;BME280;11820;48.738;9.092;2022-11-11T05:32:39;97782.84;;;7.26;nan
23303;BME280;11820;48.738;9.092;2022-11-11T05:35:06;97780.44;;;7.34;nan
23303;BME280;11820;48.738;9.092;2022-11-11T05:37:32;97791.53;;;7.35;nan
23303;BME280;11820;48.738;9.092;2022-11-11T05:39:57;97798.16;;;7.37;nan
23303;BME280;11820;48.738;9.092;2022-11-11T05:42:23;97798.16;;;7.37;nan
23303;BME280;11820;48.738;9.092;2022-11-11T05:44:48;97801.53;;;7.47;nan
23303;BME280;11820;48.738;9.092;2022-11-11T05:47:14;97802.63;;;7.54;nan
23303;BME280;11820;48.738;9.092;2022-11-11T05:49:39;97808.75;;;7.53;nan
23303;BME280;11820;48.738;9.092;2022-11-11T05:52:05;97810.47;;;7.43;nan
23303;BME280;11820;48.738;9.092;2022-11-11T05:54:31;97806.00;;;7.45;nan
23303;BME280;11820;48.738;9.092;2022-11-11T05:56:56;97805.72;;;7.39;nan
23303;BME280;11820;48.738;9.092;2022-11-11T05:59:21;97811.44;;;7.42;nan
23303;BME280;11820;48.738;9.092;2022-11-11T06:01:47;97810.22;;;7.46;nan
23303;BME280;11820;48.738;9.092;2022-11-11T06:04:12;97819.16;;;7.52;nan
23303;BME280;11820;48.738;9.092;2022-11-11T06:06:38;97820.09;;;7.60;nan
23303;BME280;11820;48.738;9.092;2022-11-11T06:09:03;97822.13;;;7.57;nan
23303;BME280;11820;48.738;9.092;2022-11-11T06:11:29;97820.66;;;7.45;nan
23303;BME280;11820;48.738;9.092;2022-11-11T06:13:54;97823.22;;;7.45;nan
23303;BME280;11820;48.738;9.092;2022-11-11T06:16:20;97820.78;;;7.43;nan
23303;BME280;11820;48.738;9.092;2022-11-11T06:18:46;97829.44;;;7.61;nan
23303;BME280;11820;48.738;9.092;2022-11-11T06:21:12;97830.25;;;7.71;nan
23303;BME280;11820;48.738;9.092;2022-11-11T06:23:37;97828.34;;;7.73;nan
23303;BME280;11820;48.738;9.092;2022-11-11T06:26:03;97830.50;;;7.68;nan
23303;BME280;11820;48.738;9.092;2022-11-11T06:31:12;97829.72;;;7.58;nan
23303;BME280;11820;48.738;9.092;2022-11-11T06:33:38;97830.78;;;7.56;nan
23303;BME280;11820;48.738;9.092;2022-11-11T06:36:05;97841.38;;;7.43;nan
23303;BME280;11820;48.738;9.092;2022-11-11T06:38:31;97847.84;;;7.19;nan
23303;BME280;11820;48.738;9.092;2022-11-11T06:40:56;97848.94;;;7.26;nan
23303;BME280;11820;48.738;9.092;2022-11-11T06:43:22;97854.19;;;7.24;nan
23303;BME280;11820;48.738;9.092;2022-11-11T06:45:51;97853.78;;;7.10;nan
23303;BME280;11820;48.738;9.092;2022-11-11T06:48:18;97853.75;;;7.00;nan
23303;BME280;11820;48.738;9.092;2022-11-11T06:50:43;97858.53;;;7.14;nan
23303;BME280;11820;48.738;9.092;2022-11-11T06:53:11;97865.72;;;7.20;nan
23303;BME280;11820;48.738;9.092;2022-11-11T06:55:37;97855.31;;;7.22;nan
23303;BME280;11820;48.738;9.092;2022-11-11T06:58:04;97854.06;;;7.16;nan
23303;BME280;11820;48.738;9.092;2022-11-11T07:00:30;97856.66;;;7.26;nan
23303;BME280;11820;48.738;9.092;2022-11-11T07:02:56;97856.66;;;7.35;nan
23303;BME280;11820;48.738;9.092;2022-11-11T07:05:21;97856.00;;;7.43;nan
23303;BME280;11820;48.738;9.092;2022-11-11T07:07:46;97850.84;;;7.52;nan
23303;BME280;11820;48.738;9.092;2022-11-11T07:10:11;97862.50;;;7.66;nan
23303;BME280;11820;48.738;9.092;2022-11-11T07:12:40;97859.91;;;7.75;nan
23303;BME280;11820;48.738;9.092;2022-11-11T07:15:05;97858.16;;;7.85;nan
23303;BME280;11820;48.738;9.092;2022-11-11T07:17:31;97862.75;;;7.91;nan
23303;BME280;11820;48.738;9.092;2022-11-11T07:19:56;97863.56;;;7.92;nan
23303;BME280;11820;48.738;9.092;2022-11-11T07:22:21;97865.16;;;8.02;nan
23303;BME280;11820;48.738;9.092;2022-11-11T07:24:47;97867.59;;;8.13;nan
23303;BME280;11820;48.738;9.092;2022-11-11T07:27:12;97863.97;;;8.06;nan
23303;BME280;11820;48.738;9.092;2022-11-11T07:29:37;97861.50;;;8.14;nan
23303;BME280;11820;48.738;9.092;2022-11-11T07:32:03;97858.94;;;8.23;nan
23303;BME280;11820;48.738;9.092;2022-11-11T07:34:31;97859.19;;;8.30;nan
23303;BME280;11820;48.738;9.092;2022-11-11T07:36:56;97858.91;;;8.33;nan
23303;BME280;11820;48.738;9.092;2022-11-11T07:39:22;97867.34;;;8.25;nan
23303;BME280;11820;48.738;9.092;2022-11-11T07:41:48;97869.09;;;8.25;nan
23303;BME280;11820;48.738;9.092;2022-11-11T07:44:13;97872.75;;;8.32;nan
23303;BME280;11820;48.738;9.092;2022-11-11T07:46:39;97872.47;;;8.35;nan
23303;BME280;11820;48.738;9.092;2022-11-11T07:49:04;97873.69;;;8.31;nan
23303;BME280;11820;48.738;9.092;2022-11-11T07:51:29;97877.31;;;8.47;nan
23303;BME280;11820;48.738;9.092;2022-11-11T07:53:55;97872.53;;;8.52;nan
23303;BME280;11820;48.738;9.092;2022-11-11T07:56:20;97871.72;;;8.52;nan
23303;BME280;11820;48.738;9.092;2022-11-11T07:58:45;97867.78;;;8.57;nan
23303;BME280;11820;48.738;9.092;2022-11-11T08:01:14;97866.53;;;8.61;nan
23303;BME280;11820;48.738;9.092;2022-11-11T08:03:39;97865.44;;;8.64;nan
23303;BME280;11820;48.738;9.092;2022-11-11T08:06:22;97859.34;;;8.65;nan
23303;BME280;11820;48.738;9.092;2022-11-11T08:08:48;97859.13;;;8.76;nan
23303;BME280;11820;48.738;9.092;2022-11-11T08:11:15;97867.66;;;8.86;nan
23303;BME280;11820;48.738;9.092;2022-11-11T08:13:41;97864.28;;;9.03;nan
23303;BME280;11820;48.738;9.092;2022-11-11T08:16:13;97857.31;;;9.13;nan
23303;BME280;11820;48.738;9.092;2022-11-11T08:18:39;97859.31;;;9.19;nan
23303;BME280;11820;48.738;9.092;2022-11-11T08:21:05;97862.38;;;9.32;nan
23303;BME280;11820;48.738;9.092;2022-11-11T08:23:31;97866.34;;;9.44;nan
23303;BME280;11820;48.738;9.092;2022-11-11T08:26:04;97856.97;;;9.60;nan
23303;BME280;11820;48.738;9.092;2022-11-11T08:28:32;97855.94;;;9.70;nan
23303;BME280;11820;48.738;9.092;2022-11-11T08:31:00;97853.81;;;9.83;nan
23303;BME280;11820;48.738;9.092;2022-11-11T08:33:26;97852.94;;;10.00;nan
23303;BME280;11820;48.738;9.092;2022-11-11T08:35:53;97845.66;;;10.13;nan
23303;BME280;11820;48.738;9.092;2022-11-11T08:38:22;97842.41;;;10.11;nan
23303;BME280;11820;48.738;9.092;2022-11-11T08:40:48;97840.22;;;10.24;nan
23303;BME280;11820;48.738;9.092;2022-11-11T08:43:13;97841.97;;;10.41;nan
23303;BME280;11820;48.738;9.092;2022-11-11T08:45:39;97833.06;;;10.44;nan
23303;BME280;11820;48.738;9.092;2022-11-11T08:48:06;97834.75;;;10.53;nan
23303;BME280;11820;48.738;9.092;2022-11-11T08:50:31;97837.16;;;10.54;nan
23303;BME280;11820;48.738;9.092;2022-11-11T08:52:57;97836.56;;;10.60;nan
23303;BME280;11820;48.738;9.092;2022-11-11T08:55:22;97839.50;;;10.65;nan
23303;BME280;11820;48.738;9.092;2022-11-11T08:57:56;97843.22;;;10.71;nan
23303;BME280;11820;48.738;9.092;2022-11-11T09:00:22;97852.44;;;10.73;nan
23303;BME280;11820;48.738;9.092;2022-11-11T09:02:48;97852.56;;;10.64;nan
23303;BME280;11820;48.738;9.092;2022-11-11T09:05:13;97850.06;;;10.80;nan
23303;BME280;11820;48.738;9.092;2022-11-11T09:07:38;97843.97;;;10.97;nan
23303;BME280;11820;48.738;9.092;2022-11-11T09:10:04;97843.84;;;11.06;nan
23303;BME280;11820;48.738;9.092;2022-11-11T09:12:29;97842.59;;;11.18;nan
23303;BME280;11820;48.738;9.092;2022-11-11T09:14:55;97848.75;;;11.33;nan
23303;BME280;11820;48.738;9.092;2022-11-11T09:17:20;97852.69;;;11.53;nan
23303;BME280;11820;48.738;9.092;2022-11-11T09:19:45;97853.41;;;11.63;nan
23303;BME280;11820;48.738;9.092;2022-11-11T09:22:11;97853.06;;;11.82;nan
23303;BME280;11820;48.738;9.092;2022-11-11T09:24:36;97851.94;;;11.92;nan
23303;BME280;11820;48.738;9.092;2022-11-11T09:27:01;97854.03;;;12.05;nan
23303;BME280;11820;48.738;9.092;2022-11-11T09:29:26;97847.53;;;12.09;nan
23303;BME280;11820;48.738;9.092;2022-11-11T09:31:52;97849.97;;;12.18;nan
23303;BME280;11820;48.738;9.092;2022-11-11T09:34:17;97845.44;;;12.28;nan
23303;BME280;11820;48.738;9.092;2022-11-11T09:36:42;97844.06;;;12.48;nan
23303;BME280;11820;48.738;9.092;2022-11-11T09:39:08;97844.19;;;12.63;nan
23303;BME280;11820;48.738;9.092;2022-11-11T09:47:23;97854.97;;;12.98;nan
23303;BME280;11820;48.738;9.092;2022-11-11T09:50:12;97840.22;;;12.98;nan
23303;BME280;11820;48.738;9.092;2022-11-11T09:52:48;97845.91;;;13.24;nan
23303;BME280;11820;48.738;9.092;2022-11-11T09:55:30;97845.16;;;13.38;nan
23303;BME280;11820;48.738;9.092;2022-11-11T09:58:02;97841.44;;;13.41;nan
23303;BME280;11820;48.738;9.092;2022-11-11T10:00:37;97843.34;;;13.47;nan
23303;BME280;11820;48.738;9.092;2022-11-11T10:08:33;97832.44;;;14.11;nan
23303;BME280;11820;48.738;9.092;2022-11-11T10:11:02;97828.09;;;14.26;nan
23303;BME280;11820;48.738;9.092;2022-11-11T10:13:31;97826.06;;;14.50;nan
23303;BME280;11820;48.738;9.092;2022-11-11T10:16:27;97825.59;;;14.90;nan
23303;BME280;11820;48.738;9.092;2022-11-11T10:21:50;97826.59;;;15.39;nan
23303;BME280;11820;48.738;9.092;2022-11-11T10:24:28;97824.22;;;15.44;nan
23303;BME280;11820;48.738;9.092;2022-11-11T10:26:54;97822.63;;;15.64;nan
23303;BME280;11820;48.738;9.092;2022-11-11T10:29:21;97832.59;;;15.75;nan
23303;BME280;11820;48.738;9.092;2022-11-11T10:34:35;97828.66;;;15.64;nan
23303;BME280;11820;48.738;9.092;2022-11-11T10:37:01;97827.53;;;15.94;nan
23303;BME280;11820;48.738;9.092;2022-11-11T10:42:19;97833.88;;;16.61;nan
23303;BME280;11820;48.738;9.092;2022-11-11T10:44:44;97834.16;;;16.79;nan
23303;BME280;11820;48.738;9.092;2022-11-11T10:47:32;97837.72;;;17.65;nan
23303;BME280;11820;48.738;9.092;2022-11-11T10:50:14;97833.19;;;18.32;nan
23303;BME280;11820;48.738;9.092;2022-11-11T10:52:47;97825.91;;;18.27;nan
23303;BME280;11820;48.738;9.092;2022-11-11T10:55:19;97822.69;;;18.32;nan
23303;BME280;11820;48.738;9.092;2022-11-11T11:00:45;97816.19;;;18.67;nan
23303;BME280;11820;48.738;9.092;2022-11-11T11:03:22;97818.25;;;18.13;nan
23303;BME280;11820;48.738;9.092;2022-11-11T11:06:01;97805.75;;;17.76;nan
23303;BME280;11820;48.738;9.092;2022-11-11T11:08:34;97805.16;;;17.87;nan
23303;BME280;11820;48.738;9.092;2022-11-11T11:11:08;97805.75;;;17.89;nan
23303;BME280;11820;48.738;9.092;2022-11-11T11:13:44;97803.13;;;18.47;nan
23303;BME280;11820;48.738;9.092;2022-11-11T11:16:16;97798.91;;;18.53;nan
23303;BME280;11820;48.738;9.092;2022-11-11T11:18:42;97796.63;;;18.63;nan
23303;BME280;11820;48.738;9.092;2022-11-11T11:21:08;97792.41;;;19.12;nan
23303;BME280;11820;48.738;9.092;2022-11-11T11:23:34;97794.63;;;19.15;nan
23303;BME280;11820;48.738;9.092;2022-11-11T11:26:00;97794.06;;;19.07;nan
23303;BME280;11820;48.738;9.092;2022-11-11T11:28:28;97795.09;;;18.99;nan
23303;BME280;11820;48.738;9.092;2022-11-11T11:31:00;97804.13;;;18.46;nan
23303;BME280;11820;48.738;9.092;2022-11-11T11:33:26;97809.19;;;18.28;nan
23303;BME280;11820;48.738;9.092;2022-11-11T11:35:51;97808.97;;;17.78;nan
23303;BME280;11820;48.738;9.092;2022-11-11T11:38:17;97805.34;;;17.92;nan
23303;BME280;11820;48.738;9.092;2022-11-11T11:40:53;97802.94;;;17.97;nan
23303;BME280;11820;48.738;9.092;2022-11-11T11:43:32;97795.09;;;18.10;nan
23303;BME280;11820;48.738;9.092;2022-11-11T11:46:03;97797.53;;;18.31;nan
23303;BME280;11820;48.738;9.092;2022-11-11T11:48:39;97796.88;;;18.42;nan
23303;BME280;11820;48.738;9.092;2022-11-11T11:54:03;97790.88;;;17.90;nan
23303;BME280;11820;48.738;9.092;2022-11-11T11:56:38;97799.72;;;18.01;nan
23303;BME280;11820;48.738;9.092;2022-11-11T11:59:17;97789.63;;;18.37;nan
23303;BME280;11820;48.738;9.092;2022-11-11T12:01:55;97795.88;;;18.23;nan
23303;BME280;11820;48.738;9.092;2022-11-11T12:05:00;97801.94;;;18.30;nan
23303;BME280;11820;48.738;9.092;2022-11-11T12:10:25;97790.47;;;18.95;nan
23303;BME280;11820;48.738;9.092;2022-11-11T12:21:15;97780.78;;;20.01;nan
23303;BME280;11820;48.738;9.092;2022-11-11T12:26:23;97777.31;;;20.67;nan
23303;BME280;11820;48.738;9.092;2022-11-11T12:28:59;97775.41;;;21.10;nan
23303;BME280;11820;48.738;9.092;2022-11-11T12:31:38;97778.84;;;21.40;nan
23303;BME280;11820;48.738;9.092;2022-11-11T12:39:27;97781.59;;;20.86;nan
23303;BME280;11820;48.738;9.092;2022-11-11T12:42:08;97771.03;;;20.32;nan
23303;BME280;11820;48.738;9.092;2022-11-11T12:47:52;97785.38;;;19.19;nan
23303;BME280;11820;48.738;9.092;2022-11-11T12:50:38;97783.63;;;19.38;nan
23303;BME280;11820;48.738;9.092;2022-11-11T12:56:23;97771.31;;;19.69;nan
23303;BME280;11820;48.738;9.092;2022-11-11T13:06:55;97776.66;;;19.56;nan
23303;BME280;11820;48.738;9.092;2022-11-11T13:10:09;97784.38;;;19.75;nan
23303;BME280;11820;48.738;9.092;2022-11-11T13:12:54;97774.63;;;20.13;nan
23303;BME280;11820;48.738;9.092;2022-11-11T13:15:25;97775.88;;;19.56;nan
23303;BME280;11820;48.738;9.092;2022-11-11T13:17:51;97768.84;;;19.06;nan
23303;BME280;11820;48.738;9.092;2022-11-11T13:20:23;97768.25;;;18.47;nan
23303;BME280;11820;48.738;9.092;2022-11-11T13:22:53;97759.81;;;18.25;nan
23303;BME280;11820;48.738;9.092;2022-11-11T13:25:24;97768.91;;;18.10;nan
23303;BME280;11820;48.738;9.092;2022-11-11T13:28:00;97772.75;;;17.95;nan
23303;BME280;11820;48.738;9.092;2022-11-11T13:33:26;97763.06;;;17.95;nan
23303;BME280;11820;48.738;9.092;2022-11-11T13:36:01;97759.81;;;18.25;nan
23303;BME280;11820;48.738;9.092;2022-11-11T13:38:31;97760.00;;;18.43;nan
23303;BME280;11820;48.738;9.092;2022-11-11T13:41:03;97757.72;;;18.66;nan
23303;BME280;11820;48.738;9.092;2022-11-11T13:43:30;97766.09;;;18.88;nan
23303;BME280;11820;48.738;9.092;2022-11-11T13:45:59;97775.59;;;18.82;nan
23303;BME280;11820;48.738;9.092;2022-11-11T13:48:37;97777.88;;;18.59;nan
23303;BME280;11820;48.738;9.092;2022-11-11T13:51:11;97778.31;;;18.56;nan
23303;BME280;11820;48.738;9.092;2022-11-11T13:53:38;97776.13;;;18.21;nan
23303;BME280;11820;48.738;9.092;2022-11-11T13:56:04;97777.34;;;18.12;nan
23303;BME280;11820;48.738;9.092;2022-11-11T13:58:35;97778.78;;;18.08;nan
23303;BME280;11820;48.738;9.092;2022-11-11T14:01:04;97775.75;;;17.98;nan
23303;BME280;11820;48.738;9.092;2022-11-11T14:03:33;97769.50;;;17.80;nan
23303;BME280;11820;48.738;9.092;2022-11-11T14:13:57;97763.88;;;17.89;nan
23303;BME280;11820;48.738;9.092;2022-11-11T14:21:51;97767.84;;;17.33;nan
23303;BME280;11820;48.738;9.092;2022-11-11T14:24:29;97779.53;;;17.37;nan
23303;BME280;11820;48.738;9.092;2022-11-11T14:26:57;97778.31;;;17.33;nan
23303;BME280;11820;48.738;9.092;2022-11-11T14:29:28;97774.41;;;17.16;nan
23303;BME280;11820;48.738;9.092;2022-11-11T14:37:51;97782.81;;;16.58;nan
23303;BME280;11820;48.738;9.092;2022-11-11T14:40:27;97792.56;;;16.43;nan
23303;BME280;11820;48.738;9.092;2022-11-11T14:42:53;97794.66;;;16.27;nan
23303;BME280;11820;48.738;9.092;2022-11-11T14:47:47;97799.63;;;15.95;nan
23303;BME280;11820;48.738;9.092;2022-11-11T14:52:59;97792.22;;;15.50;nan
23303;BME280;11820;48.738;9.092;2022-11-11T14:55:35;97786.75;;;15.45;nan
23303;BME280;11820;48.738;9.092;2022-11-11T15:00:48;97788.69;;;15.36;nan
23303;BME280;11820;48.738;9.092;2022-11-11T15:03:24;97786.00;;;15.15;nan
23303;BME280;11820;48.738;9.092;2022-11-11T15:06:01;97791.78;;;15.11;nan
23303;BME280;11820;48.738;9.092;2022-11-11T15:11:32;97790.47;;;14.86;nan
23303;BME280;11820;48.738;9.092;2022-11-11T15:17:12;97800.81;;;14.65;nan
23303;BME280;11820;48.738;9.092;2022-11-11T15:22:55;97798.31;;;14.43;nan
23303;BME280;11820;48.738;9.092;2022-11-11T15:26:00;97801.72;;;14.29;nan
23303;BME280;11820;48.738;9.092;2022-11-11T15:31:32;97799.59;;;13.95;nan
23303;BME280;11820;48.738;9.092;2022-11-11T15:37:12;97795.25;;;13.88;nan
23303;BME280;11820;48.738;9.092;2022-11-11T15:39:47;97802.47;;;13.78;nan
23303;BME280;11820;48.738;9.092;2022-11-11T15:42:35;97794.31;;;13.66;nan
23303;BME280;11820;48.738;9.092;2022-11-11T15:45:07;97796.81;;;13.60;nan
23303;BME280;11820;48.738;9.092;2022-11-11T15:47:38;97802.69;;;13.54;nan